sensor_id;sensor_type;location;lat;lon;timestamp;temperature;humidity
336;DHT22;156;48.738;9.228;2023-07-16T00:02:05;19.10;99.90
336;DHT22;156;48.738;9.228;2023-07-16T00:04:35;19.00;99.90
336;DHT22;156;48.738;9.228;2023-07-16T00:07:02;18.90;99.90
336;DHT22;156;48.738;9.228;2023-07-16T00:09:30;18.90;99.90
336;DHT22;156;48.738;9.228;2023-07-16T00:11:57;19.00;99.90
336;DHT22;156;48.738;9.228;2023-07-16T00:14:24;18.80;99.90
336;DHT22;156;48.738;9.228;2023-07-16T00:16:51;18.80;99.90
336;DHT22;156;48.738;9.228;2023-07-16T00:19:18;18.80;99.90
336;DHT22;156;48.738;9.228;2023-07-16T00:21:45;18.90;99.90
336;DHT22;156;48.738;9.228;2023-07-16T00:24:12;18.70;99.90
336;DHT22;156;48.738;9.228;2023-07-16T00:26:40;18.60;99.90
336;DHT22;156;48.738;9.228;2023-07-16T00:29:07;18.70;99.90
336;DHT22;156;48.738;9.228;2023-07-16T00:31:34;18.60;99.90
336;DHT22;156;48.738;9.228;2023-07-16T00:34:01;18.70;99.90
336;DHT22;156;48.738;9.228;2023-07-16T00:36:28;18.70;99.90
336;DHT22;156;48.738;9.228;2023-07-16T00:38:54;18.70;99.90
336;DHT22;156;48.738;9.228;2023-07-16T00:41:21;18.70;99.90
336;DHT22;156;48.738;9.228;2023-07-16T00:43:50;18.70;99.90
336;DHT22;156;48.738;9.228;2023-07-16T00:46:17;18.70;99.90
336;DHT22;156;48.738;9.228;2023-07-16T00:48:44;18.80;99.90
336;DHT22;156;48.738;9.228;2023-07-16T00:51:11;18.80;99.90
336;DHT22;156;48.738;9.228;2023-07-16T00:53:39;18.90;99.90
336;DHT22;156;48.738;9.228;2023-07-16T00:56:07;19.00;99.90
336;DHT22;156;48.738;9.228;2023-07-16T00:58:37;18.90;99.90
336;DHT22;156;48.738;9.228;2023-07-16T01:01:08;19.00;99.90
336;DHT22;156;48.738;9.228;2023-07-16T01:03:35;19.10;99.90
336;DHT22;156;48.738;9.228;2023-07-16T01:06:07;19.10;99.90
336;DHT22;156;48.738;9.228;2023-07-16T01:08:41;19.20;99.90
336;DHT22;156;48.738;9.228;2023-07-16T01:11:09;19.30;99.90
336;DHT22;156;48.738;9.228;2023-07-16T01:13:37;19.40;99.90
336;DHT22;156;48.738;9.228;2023-07-16T01:16:04;19.40;99.90
336;DHT22;156;48.738;9.228;2023-07-16T01:18:33;19.40;99.90
336;DHT22;156;48.738;9.228;2023-07-16T01:21:01;19.40;99.90
336;DHT22;156;48.738;9.228;2023-07-16T01:23:50;19.40;99.90
336;DHT22;156;48.738;9.228;2023-07-16T01:26:46;19.40;99.90
336;DHT22;156;48.738;9.228;2023-07-16T01:29:28;19.20;99.90
336;DHT22;156;48.738;9.228;2023-07-16T01:31:56;19.10;99.90
336;DHT22;156;48.738;9.228;2023-07-16T01:34:25;19.00;99.90
336;DHT22;156;48.738;9.228;2023-07-16T01:36:53;19.10;99.90
336;DHT22;156;48.738;9.228;2023-07-16T01:39:20;19.10;99.90
336;DHT22;156;48.738;9.228;2023-07-16T01:41:47;19.10;99.90
336;DHT22;156;48.738;9.228;2023-07-16T01:44:16;19.10;99.90
336;DHT22;156;48.738;9.228;2023-07-16T01:46:44;19.00;99.90
336;DHT22;156;48.738;9.228;2023-07-16T01:49:15;19.10;99.90
336;DHT22;156;48.738;9.228;2023-07-16T01:51:42;19.10;99.90
336;DHT22;156;48.738;9.228;2023-07-16T01:54:09;19.00;99.90
336;DHT22;156;48.738;9.228;2023-07-16T01:56:36;19.00;99.90
336;DHT22;156;48.738;9.228;2023-07-16T01:59:02;18.90;99.90
336;DHT22;156;48.738;9.228;2023-07-16T02:01:29;18.90;99.90
336;DHT22;156;48.738;9.228;2023-07-16T02:03:58;18.90;99.90
336;DHT22;156;48.738;9.228;2023-07-16T02:06:25;18.80;99.90
336;DHT22;156;48.738;9.228;2023-07-16T02:08:52;18.70;99.90
336;DHT22;156;48.738;9.228;2023-07-16T02:11:19;18.70;99.90
336;DHT22;156;48.738;9.228;2023-07-16T02:13:48;18.70;99.90
336;DHT22;156;48.738;9.228;2023-07-16T02:16:15;18.80;99.90
336;DHT22;156;48.738;9.228;2023-07-16T02:18:44;18.80;99.90
336;DHT22;156;48.738;9.228;2023-07-16T02:21:15;18.70;99.90
336;DHT22;156;48.738;9.228;2023-07-16T02:23:44;18.60;99.90
336;DHT22;156;48.738;9.228;2023-07-16T02:26:12;18.40;99.90
336;DHT22;156;48.738;9.228;2023-07-16T02:28:43;18.40;99.90
336;DHT22;156;48.738;9.228;2023-07-16T02:31:10;18.30;99.90
336;DHT22;156;48.738;9.228;2023-07-16T02:33:37;18.20;99.90
336;DHT22;156;48.738;9.228;2023-07-16T02:36:04;18.20;99.90
336;DHT22;156;48.738;9.228;2023-07-16T02:38:33;18.10;99.90
336;DHT22;156;48.738;9.228;2023-07-16T02:41:00;18.20;99.90
336;DHT22;156;48.738;9.228;2023-07-16T02:43:27;18.10;99.90
336;DHT22;156;48.738;9.228;2023-07-16T02:45:54;18.00;99.90
336;DHT22;156;48.738;9.228;2023-07-16T02:48:22;18.00;99.90
336;DHT22;156;48.738;9.228;2023-07-16T02:50:49;17.90;99.90
336;DHT22;156;48.738;9.228;2023-07-16T02:53:16;17.90;99.90
336;DHT22;156;48.738;9.228;2023-07-16T02:55:45;17.90;99.90
336;DHT22;156;48.738;9.228;2023-07-16T02:58:13;17.90;99.90
336;DHT22;156;48.738;9.228;2023-07-16T03:00:40;17.80;99.90
336;DHT22;156;48.738;9.228;2023-07-16T03:03:07;17.70;99.90
336;DHT22;156;48.738;9.228;2023-07-16T03:05:34;17.60;99.90
336;DHT22;156;48.738;9.228;2023-07-16T03:08:01;17.60;99.90
336;DHT22;156;48.738;9.228;2023-07-16T03:10:28;17.60;99.90
336;DHT22;156;48.738;9.228;2023-07-16T03:12:57;17.70;99.90
336;DHT22;156;48.738;9.228;2023-07-16T03:15:24;17.60;99.90
336;DHT22;156;48.738;9.228;2023-07-16T03:17:51;17.60;99.90
336;DHT22;156;48.738;9.228;2023-07-16T03:20:18;17.70;99.90
336;DHT22;156;48.738;9.228;2023-07-16T03:22:45;17.60;99.90
336;DHT22;156;48.738;9.228;2023-07-16T03:25:12;17.60;99.90
336;DHT22;156;48.738;9.228;2023-07-16T03:27:39;17.60;99.90
336;DHT22;156;48.738;9.228;2023-07-16T03:30:08;17.60;99.90
336;DHT22;156;48.738;9.228;2023-07-16T03:32:36;17.50;99.90
336;DHT22;156;48.738;9.228;2023-07-16T03:35:06;17.60;99.90
336;DHT22;156;48.738;9.228;2023-07-16T03:37:33;17.60;99.90
336;DHT22;156;48.738;9.228;2023-07-16T03:40:12;17.60;99.90
336;DHT22;156;48.738;9.228;2023-07-16T03:42:40;17.70;99.90
336;DHT22;156;48.738;9.228;2023-07-16T03:45:10;17.70;99.90
336;DHT22;156;48.738;9.228;2023-07-16T03:47:37;17.70;99.90
336;DHT22;156;48.738;9.228;2023-07-16T03:50:05;17.80;99.90
336;DHT22;156;48.738;9.228;2023-07-16T03:52:33;17.90;99.90
336;DHT22;156;48.738;9.228;2023-07-16T03:55:00;17.80;99.90
336;DHT22;156;48.738;9.228;2023-07-16T03:57:28;17.80;99.90
336;DHT22;156;48.738;9.228;2023-07-16T03:59:55;17.60;99.90
336;DHT22;156;48.738;9.228;2023-07-16T04:02:23;17.60;99.90
336;DHT22;156;48.738;9.228;2023-07-16T04:04:51;17.50;99.90
336;DHT22;156;48.738;9.228;2023-07-16T04:07:18;17.60;99.90
336;DHT22;156;48.738;9.228;2023-07-16T04:09:45;17.60;99.90
336;DHT22;156;48.738;9.228;2023-07-16T04:12:12;17.60;99.90
336;DHT22;156;48.738;9.228;2023-07-16T04:14:39;17.60;99.90
336;DHT22;156;48.738;9.228;2023-07-16T04:17:08;17.60;99.90
336;DHT22;156;48.738;9.228;2023-07-16T04:19:37;17.70;99.90
336;DHT22;156;48.738;9.228;2023-07-16T04:22:05;17.80;99.90
336;DHT22;156;48.738;9.228;2023-07-16T04:24:32;17.80;99.90
336;DHT22;156;48.738;9.228;2023-07-16T04:26:59;17.90;99.90
336;DHT22;156;48.738;9.228;2023-07-16T04:29:26;17.90;99.90
336;DHT22;156;48.738;9.228;2023-07-16T04:31:53;18.00;99.90
336;DHT22;156;48.738;9.228;2023-07-16T04:34:20;18.00;99.90
336;DHT22;156;48.738;9.228;2023-07-16T04:36:48;18.00;99.90
336;DHT22;156;48.738;9.228;2023-07-16T04:39:15;18.00;99.90
336;DHT22;156;48.738;9.228;2023-07-16T04:41:42;17.90;99.90
336;DHT22;156;48.738;9.228;2023-07-16T04:44:09;17.80;99.90
336;DHT22;156;48.738;9.228;2023-07-16T04:46:36;17.80;99.90
336;DHT22;156;48.738;9.228;2023-07-16T04:49:04;17.70;99.90
336;DHT22;156;48.738;9.228;2023-07-16T04:51:31;17.80;99.90
336;DHT22;156;48.738;9.228;2023-07-16T04:54:00;17.80;99.90
336;DHT22;156;48.738;9.228;2023-07-16T04:56:27;17.80;99.90
336;DHT22;156;48.738;9.228;2023-07-16T04:58:54;17.80;99.90
336;DHT22;156;48.738;9.228;2023-07-16T05:01:21;17.70;99.90
336;DHT22;156;48.738;9.228;2023-07-16T05:03:48;17.70;99.90
336;DHT22;156;48.738;9.228;2023-07-16T05:06:15;17.80;99.90
336;DHT22;156;48.738;9.228;2023-07-16T05:08:42;17.80;99.90
336;DHT22;156;48.738;9.228;2023-07-16T05:11:12;17.70;99.90
336;DHT22;156;48.738;9.228;2023-07-16T05:13:39;17.60;99.90
336;DHT22;156;48.738;9.228;2023-07-16T05:16:06;17.60;99.90
336;DHT22;156;48.738;9.228;2023-07-16T05:18:33;17.60;99.90
336;DHT22;156;48.738;9.228;2023-07-16T05:21:00;17.50;99.90
336;DHT22;156;48.738;9.228;2023-07-16T05:23:29;17.50;99.90
336;DHT22;156;48.738;9.228;2023-07-16T05:25:56;16.80;99.90
336;DHT22;156;48.738;9.228;2023-07-16T05:28:25;17.40;99.90
336;DHT22;156;48.738;9.228;2023-07-16T05:30:58;17.40;99.90
336;DHT22;156;48.738;9.228;2023-07-16T05:33:25;17.30;99.90
336;DHT22;156;48.738;9.228;2023-07-16T05:35:52;17.40;99.90
336;DHT22;156;48.738;9.228;2023-07-16T05:38:19;17.40;99.90
336;DHT22;156;48.738;9.228;2023-07-16T05:40:46;17.30;99.90
336;DHT22;156;48.738;9.228;2023-07-16T05:43:13;17.30;99.90
336;DHT22;156;48.738;9.228;2023-07-16T05:45:42;17.40;99.90
336;DHT22;156;48.738;9.228;2023-07-16T05:48:09;17.50;99.90
336;DHT22;156;48.738;9.228;2023-07-16T05:50:37;17.60;99.90
336;DHT22;156;48.738;9.228;2023-07-16T05:53:04;17.50;99.90
336;DHT22;156;48.738;9.228;2023-07-16T05:55:31;17.50;99.90
336;DHT22;156;48.738;9.228;2023-07-16T05:57:58;17.50;99.90
336;DHT22;156;48.738;9.228;2023-07-16T06:00:25;17.60;99.90
336;DHT22;156;48.738;9.228;2023-07-16T06:02:53;17.80;99.90
336;DHT22;156;48.738;9.228;2023-07-16T06:05:22;17.90;99.90
336;DHT22;156;48.738;9.228;2023-07-16T06:07:50;17.90;99.90
336;DHT22;156;48.738;9.228;2023-07-16T06:10:17;18.00;99.90
336;DHT22;156;48.738;9.228;2023-07-16T06:12:44;18.00;99.90
336;DHT22;156;48.738;9.228;2023-07-16T06:15:11;18.00;99.90
336;DHT22;156;48.738;9.228;2023-07-16T06:17:39;18.10;99.90
336;DHT22;156;48.738;9.228;2023-07-16T06:20:09;18.00;99.90
336;DHT22;156;48.738;9.228;2023-07-16T06:22:36;17.90;99.90
336;DHT22;156;48.738;9.228;2023-07-16T06:25:04;18.00;99.90
336;DHT22;156;48.738;9.228;2023-07-16T06:27:32;17.90;99.90
336;DHT22;156;48.738;9.228;2023-07-16T06:30:02;17.90;99.90
336;DHT22;156;48.738;9.228;2023-07-16T06:32:31;17.90;99.90
336;DHT22;156;48.738;9.228;2023-07-16T06:35:02;18.00;99.90
336;DHT22;156;48.738;9.228;2023-07-16T06:37:32;18.00;99.90
336;DHT22;156;48.738;9.228;2023-07-16T06:39:59;16.20;99.90
336;DHT22;156;48.738;9.228;2023-07-16T06:42:26;18.20;99.90
336;DHT22;156;48.738;9.228;2023-07-16T06:44:53;18.40;99.90
336;DHT22;156;48.738;9.228;2023-07-16T06:47:20;18.30;99.90
336;DHT22;156;48.738;9.228;2023-07-16T06:49:47;18.30;99.90
336;DHT22;156;48.738;9.228;2023-07-16T06:52:21;18.30;99.90
336;DHT22;156;48.738;9.228;2023-07-16T06:54:52;18.30;99.90
336;DHT22;156;48.738;9.228;2023-07-16T06:57:19;18.30;99.90
336;DHT22;156;48.738;9.228;2023-07-16T06:59:46;18.40;99.90
336;DHT22;156;48.738;9.228;2023-07-16T07:02:15;18.40;99.90
336;DHT22;156;48.738;9.228;2023-07-16T07:04:42;18.50;99.90
336;DHT22;156;48.738;9.228;2023-07-16T07:07:10;18.40;99.90
336;DHT22;156;48.738;9.228;2023-07-16T07:09:38;18.50;99.90
336;DHT22;156;48.738;9.228;2023-07-16T07:12:08;18.40;99.90
336;DHT22;156;48.738;9.228;2023-07-16T07:14:35;18.50;99.90
336;DHT22;156;48.738;9.228;2023-07-16T07:17:05;18.40;99.90
336;DHT22;156;48.738;9.228;2023-07-16T07:19:33;18.40;99.90
336;DHT22;156;48.738;9.228;2023-07-16T07:22:00;18.60;99.90
336;DHT22;156;48.738;9.228;2023-07-16T07:24:27;18.50;99.90
336;DHT22;156;48.738;9.228;2023-07-16T07:26:54;18.70;99.90
336;DHT22;156;48.738;9.228;2023-07-16T07:29:23;18.70;77.90
336;DHT22;156;48.738;9.228;2023-07-16T07:31:50;18.80;97.10
336;DHT22;156;48.738;9.228;2023-07-16T07:34:19;19.00;95.60
336;DHT22;156;48.738;9.228;2023-07-16T07:36:46;17.30;74.20
336;DHT22;156;48.738;9.228;2023-07-16T07:39:14;19.10;70.70
336;DHT22;156;48.738;9.228;2023-07-16T07:41:42;19.10;52.80
336;DHT22;156;48.738;9.228;2023-07-16T07:44:09;19.20;44.80
336;DHT22;156;48.738;9.228;2023-07-16T07:46:38;19.30;39.60
336;DHT22;156;48.738;9.228;2023-07-16T07:49:07;19.20;47.60
336;DHT22;156;48.738;9.228;2023-07-16T07:51:34;19.20;47.30
336;DHT22;156;48.738;9.228;2023-07-16T07:54:04;19.10;56.30
336;DHT22;156;48.738;9.228;2023-07-16T07:56:33;19.90;40.20
336;DHT22;156;48.738;9.228;2023-07-16T07:59:03;19.20;49.60
336;DHT22;156;48.738;9.228;2023-07-16T08:01:33;19.20;34.60
336;DHT22;156;48.738;9.228;2023-07-16T08:04:03;19.10;33.80
336;DHT22;156;48.738;9.228;2023-07-16T08:06:31;19.10;20.70
336;DHT22;156;48.738;9.228;2023-07-16T08:08:59;19.20;49.70
336;DHT22;156;48.738;9.228;2023-07-16T08:11:29;19.10;40.50
336;DHT22;156;48.738;9.228;2023-07-16T08:13:56;19.10;28.50
336;DHT22;156;48.738;9.228;2023-07-16T08:16:24;19.20;49.30
336;DHT22;156;48.738;9.228;2023-07-16T08:18:54;19.40;25.30
336;DHT22;156;48.738;9.228;2023-07-16T08:21:24;19.70;30.10
336;DHT22;156;48.738;9.228;2023-07-16T08:23:52;19.50;3.10
336;DHT22;156;48.738;9.228;2023-07-16T08:26:19;19.40;1.00
336;DHT22;156;48.738;9.228;2023-07-16T08:28:46;19.30;4.50
336;DHT22;156;48.738;9.228;2023-07-16T08:31:15;19.40;1.00
336;DHT22;156;48.738;9.228;2023-07-16T08:33:42;19.70;1.00
336;DHT22;156;48.738;9.228;2023-07-16T08:36:10;19.50;1.00
336;DHT22;156;48.738;9.228;2023-07-16T08:38:41;19.70;1.00
336;DHT22;156;48.738;9.228;2023-07-16T08:41:09;19.90;1.00
336;DHT22;156;48.738;9.228;2023-07-16T08:43:39;19.80;1.00
336;DHT22;156;48.738;9.228;2023-07-16T08:46:07;19.70;1.00
336;DHT22;156;48.738;9.228;2023-07-16T08:48:39;20.10;1.00
336;DHT22;156;48.738;9.228;2023-07-16T08:51:07;19.80;1.00
336;DHT22;156;48.738;9.228;2023-07-16T08:53:36;19.70;1.00
336;DHT22;156;48.738;9.228;2023-07-16T08:56:05;19.80;1.00
336;DHT22;156;48.738;9.228;2023-07-16T08:58:33;19.90;1.00
336;DHT22;156;48.738;9.228;2023-07-16T09:01:03;19.50;1.00
336;DHT22;156;48.738;9.228;2023-07-16T09:03:35;19.80;1.00
336;DHT22;156;48.738;9.228;2023-07-16T09:06:03;19.80;1.00
336;DHT22;156;48.738;9.228;2023-07-16T09:08:32;20.10;1.00
336;DHT22;156;48.738;9.228;2023-07-16T09:11:11;20.20;1.00
336;DHT22;156;48.738;9.228;2023-07-16T09:13:44;20.10;1.00
336;DHT22;156;48.738;9.228;2023-07-16T09:16:19;20.00;1.00
336;DHT22;156;48.738;9.228;2023-07-16T09:18:51;19.80;1.00
336;DHT22;156;48.738;9.228;2023-07-16T09:21:18;19.90;1.00
336;DHT22;156;48.738;9.228;2023-07-16T09:23:49;20.20;1.00
336;DHT22;156;48.738;9.228;2023-07-16T09:26:20;20.00;1.00
336;DHT22;156;48.738;9.228;2023-07-16T09:28:50;20.10;1.00
336;DHT22;156;48.738;9.228;2023-07-16T09:31:20;20.40;1.00
336;DHT22;156;48.738;9.228;2023-07-16T09:33:51;20.70;1.00
336;DHT22;156;48.738;9.228;2023-07-16T09:36:24;20.50;1.00
336;DHT22;156;48.738;9.228;2023-07-16T09:38:53;21.10;1.00
336;DHT22;156;48.738;9.228;2023-07-16T09:41:23;21.10;1.00
336;DHT22;156;48.738;9.228;2023-07-16T09:43:53;20.90;1.00
336;DHT22;156;48.738;9.228;2023-07-16T09:46:21;20.70;1.00
336;DHT22;156;48.738;9.228;2023-07-16T09:48:49;21.00;1.00
336;DHT22;156;48.738;9.228;2023-07-16T09:51:17;20.70;1.00
336;DHT22;156;48.738;9.228;2023-07-16T09:53:50;20.70;1.00
336;DHT22;156;48.738;9.228;2023-07-16T09:56:21;21.00;1.00
336;DHT22;156;48.738;9.228;2023-07-16T09:58:50;21.20;1.00
336;DHT22;156;48.738;9.228;2023-07-16T10:01:19;21.40;1.00
336;DHT22;156;48.738;9.228;2023-07-16T10:03:49;21.50;1.00
336;DHT22;156;48.738;9.228;2023-07-16T10:06:25;21.40;1.00
336;DHT22;156;48.738;9.228;2023-07-16T10:08:52;21.40;1.00
336;DHT22;156;48.738;9.228;2023-07-16T10:11:24;21.40;1.00
336;DHT22;156;48.738;9.228;2023-07-16T10:13:59;21.60;1.00
336;DHT22;156;48.738;9.228;2023-07-16T10:16:36;21.30;1.00
336;DHT22;156;48.738;9.228;2023-07-16T10:19:04;21.60;1.00
336;DHT22;156;48.738;9.228;2023-07-16T10:21:37;21.80;1.00
336;DHT22;156;48.738;9.228;2023-07-16T10:24:05;21.60;1.00
336;DHT22;156;48.738;9.228;2023-07-16T10:26:45;21.70;1.00
336;DHT22;156;48.738;9.228;2023-07-16T10:29:12;21.80;1.00
336;DHT22;156;48.738;9.228;2023-07-16T10:31:53;21.90;1.00
336;DHT22;156;48.738;9.228;2023-07-16T10:34:23;22.10;1.00
336;DHT22;156;48.738;9.228;2023-07-16T10:36:52;22.30;1.00
336;DHT22;156;48.738;9.228;2023-07-16T10:39:19;22.30;1.00
336;DHT22;156;48.738;9.228;2023-07-16T10:41:52;22.40;1.00
336;DHT22;156;48.738;9.228;2023-07-16T10:44:20;22.40;1.00
336;DHT22;156;48.738;9.228;2023-07-16T10:46:51;22.40;1.00
336;DHT22;156;48.738;9.228;2023-07-16T10:49:30;22.20;1.00
336;DHT22;156;48.738;9.228;2023-07-16T10:51:59;21.50;1.00
336;DHT22;156;48.738;9.228;2023-07-16T10:54:26;22.40;1.00
336;DHT22;156;48.738;9.228;2023-07-16T10:56:56;22.30;1.00
336;DHT22;156;48.738;9.228;2023-07-16T10:59:25;22.50;1.00
336;DHT22;156;48.738;9.228;2023-07-16T11:01:57;22.40;1.00
336;DHT22;156;48.738;9.228;2023-07-16T11:04:33;22.10;1.00
336;DHT22;156;48.738;9.228;2023-07-16T11:07:05;22.30;1.00
336;DHT22;156;48.738;9.228;2023-07-16T11:09:33;22.60;1.00
336;DHT22;156;48.738;9.228;2023-07-16T11:12:10;22.70;1.00
336;DHT22;156;48.738;9.228;2023-07-16T11:14:39;22.80;1.00
336;DHT22;156;48.738;9.228;2023-07-16T11:17:07;23.00;1.00
336;DHT22;156;48.738;9.228;2023-07-16T11:19:40;23.20;1.00
336;DHT22;156;48.738;9.228;2023-07-16T11:22:08;23.40;1.00
336;DHT22;156;48.738;9.228;2023-07-16T11:24:37;23.40;1.00
336;DHT22;156;48.738;9.228;2023-07-16T11:27:19;23.50;1.00
336;DHT22;156;48.738;9.228;2023-07-16T11:29:48;23.30;1.00
336;DHT22;156;48.738;9.228;2023-07-16T11:32:27;23.20;1.00
336;DHT22;156;48.738;9.228;2023-07-16T11:34:55;23.30;1.00
336;DHT22;156;48.738;9.228;2023-07-16T11:37:24;23.40;1.00
336;DHT22;156;48.738;9.228;2023-07-16T11:39:55;23.70;1.00
336;DHT22;156;48.738;9.228;2023-07-16T11:42:35;23.60;1.00
336;DHT22;156;48.738;9.228;2023-07-16T11:45:14;23.70;1.00
336;DHT22;156;48.738;9.228;2023-07-16T11:47:46;23.90;1.00
336;DHT22;156;48.738;9.228;2023-07-16T11:50:14;24.30;1.00
336;DHT22;156;48.738;9.228;2023-07-16T11:55:57;24.20;1.00
336;DHT22;156;48.738;9.228;2023-07-16T11:58:29;24.20;1.00
336;DHT22;156;48.738;9.228;2023-07-16T12:00:56;24.10;1.00
336;DHT22;156;48.738;9.228;2023-07-16T12:03:24;23.80;1.00
336;DHT22;156;48.738;9.228;2023-07-16T12:05:52;23.60;1.00
336;DHT22;156;48.738;9.228;2023-07-16T12:08:19;23.60;1.00
336;DHT22;156;48.738;9.228;2023-07-16T12:10:48;23.40;1.00
336;DHT22;156;48.738;9.228;2023-07-16T12:13:16;23.60;1.00
336;DHT22;156;48.738;9.228;2023-07-16T12:15:49;23.90;1.00
336;DHT22;156;48.738;9.228;2023-07-16T12:18:19;23.90;1.00
336;DHT22;156;48.738;9.228;2023-07-16T12:20:48;23.70;1.00
336;DHT22;156;48.738;9.228;2023-07-16T12:23:15;23.40;1.00
336;DHT22;156;48.738;9.228;2023-07-16T12:25:42;23.50;1.00
336;DHT22;156;48.738;9.228;2023-07-16T12:28:12;23.70;1.00
336;DHT22;156;48.738;9.228;2023-07-16T12:30:44;24.00;1.00
336;DHT22;156;48.738;9.228;2023-07-16T12:33:16;23.50;1.00
336;DHT22;156;48.738;9.228;2023-07-16T12:35:50;24.00;1.00
336;DHT22;156;48.738;9.228;2023-07-16T12:38:18;24.10;1.00
336;DHT22;156;48.738;9.228;2023-07-16T12:40:46;24.30;1.00
336;DHT22;156;48.738;9.228;2023-07-16T12:43:16;24.30;1.00
336;DHT22;156;48.738;9.228;2023-07-16T12:45:45;24.60;1.00
336;DHT22;156;48.738;9.228;2023-07-16T12:48:17;24.60;1.00
336;DHT22;156;48.738;9.228;2023-07-16T12:50:44;24.90;1.00
336;DHT22;156;48.738;9.228;2023-07-16T12:53:12;25.20;1.00
336;DHT22;156;48.738;9.228;2023-07-16T12:55:45;25.90;1.00
336;DHT22;156;48.738;9.228;2023-07-16T12:58:13;26.30;1.00
336;DHT22;156;48.738;9.228;2023-07-16T13:00:40;26.70;1.00
336;DHT22;156;48.738;9.228;2023-07-16T13:03:09;26.70;1.00
336;DHT22;156;48.738;9.228;2023-07-16T13:05:42;26.60;1.00
336;DHT22;156;48.738;9.228;2023-07-16T13:08:10;26.60;1.00
336;DHT22;156;48.738;9.228;2023-07-16T13:10:40;26.80;1.00
336;DHT22;156;48.738;9.228;2023-07-16T13:13:08;26.60;1.00
336;DHT22;156;48.738;9.228;2023-07-16T13:15:36;26.80;1.00
336;DHT22;156;48.738;9.228;2023-07-16T13:18:09;27.40;1.00
336;DHT22;156;48.738;9.228;2023-07-16T13:20:37;27.60;1.00
336;DHT22;156;48.738;9.228;2023-07-16T13:23:06;27.50;1.00
336;DHT22;156;48.738;9.228;2023-07-16T13:25:34;27.40;1.00
336;DHT22;156;48.738;9.228;2023-07-16T13:28:04;27.60;1.00
336;DHT22;156;48.738;9.228;2023-07-16T13:30:34;26.60;1.00
336;DHT22;156;48.738;9.228;2023-07-16T13:33:03;26.00;1.00
336;DHT22;156;48.738;9.228;2023-07-16T13:35:38;25.90;1.00
336;DHT22;156;48.738;9.228;2023-07-16T13:38:07;26.00;1.00
336;DHT22;156;48.738;9.228;2023-07-16T13:40:37;26.30;1.00
336;DHT22;156;48.738;9.228;2023-07-16T13:43:05;26.80;1.00
336;DHT22;156;48.738;9.228;2023-07-16T13:45:32;27.20;1.00
336;DHT22;156;48.738;9.228;2023-07-16T13:48:01;27.40;1.00
336;DHT22;156;48.738;9.228;2023-07-16T13:50:32;26.70;1.00
336;DHT22;156;48.738;9.228;2023-07-16T13:53:00;26.80;1.00
336;DHT22;156;48.738;9.228;2023-07-16T13:55:31;26.50;1.00
336;DHT22;156;48.738;9.228;2023-07-16T13:58:00;26.70;1.00
336;DHT22;156;48.738;9.228;2023-07-16T14:00:31;26.50;1.00
336;DHT22;156;48.738;9.228;2023-07-16T14:02:59;25.10;1.00
336;DHT22;156;48.738;9.228;2023-07-16T14:05:27;25.60;1.00
336;DHT22;156;48.738;9.228;2023-07-16T14:07:55;25.40;1.00
336;DHT22;156;48.738;9.228;2023-07-16T14:10:23;25.30;1.00
336;DHT22;156;48.738;9.228;2023-07-16T14:12:52;25.30;1.00
336;DHT22;156;48.738;9.228;2023-07-16T14:15:21;25.60;1.00
336;DHT22;156;48.738;9.228;2023-07-16T14:17:51;25.70;1.00
336;DHT22;156;48.738;9.228;2023-07-16T14:20:18;25.90;1.00
336;DHT22;156;48.738;9.228;2023-07-16T14:22:50;26.00;1.00
336;DHT22;156;48.738;9.228;2023-07-16T14:25:18;26.20;1.00
336;DHT22;156;48.738;9.228;2023-07-16T14:27:48;26.40;1.00
336;DHT22;156;48.738;9.228;2023-07-16T14:30:18;25.70;1.00
336;DHT22;156;48.738;9.228;2023-07-16T14:32:47;25.50;1.00
336;DHT22;156;48.738;9.228;2023-07-16T14:35:15;24.90;1.00
336;DHT22;156;48.738;9.228;2023-07-16T14:37:44;24.70;1.00
336;DHT22;156;48.738;9.228;2023-07-16T14:40:12;24.80;1.00
336;DHT22;156;48.738;9.228;2023-07-16T14:42:40;24.60;1.00
336;DHT22;156;48.738;9.228;2023-07-16T14:45:09;24.90;1.00
336;DHT22;156;48.738;9.228;2023-07-16T14:47:39;25.30;1.00
336;DHT22;156;48.738;9.228;2023-07-16T14:50:08;24.90;1.00
336;DHT22;156;48.738;9.228;2023-07-16T14:52:37;25.20;1.00
336;DHT22;156;48.738;9.228;2023-07-16T14:55:06;25.10;1.00
336;DHT22;156;48.738;9.228;2023-07-16T14:57:33;25.00;1.00
336;DHT22;156;48.738;9.228;2023-07-16T15:00:01;25.30;1.00
336;DHT22;156;48.738;9.228;2023-07-16T15:02:29;25.40;1.00
336;DHT22;156;48.738;9.228;2023-07-16T15:04:59;25.40;1.00
336;DHT22;156;48.738;9.228;2023-07-16T15:07:27;25.10;1.00
336;DHT22;156;48.738;9.228;2023-07-16T15:09:55;25.20;1.00
336;DHT22;156;48.738;9.228;2023-07-16T15:12:22;24.90;1.00
336;DHT22;156;48.738;9.228;2023-07-16T15:14:51;24.90;1.00
336;DHT22;156;48.738;9.228;2023-07-16T15:17:22;25.00;1.00
336;DHT22;156;48.738;9.228;2023-07-16T15:19:49;24.90;1.00
336;DHT22;156;48.738;9.228;2023-07-16T15:22:18;24.80;1.00
336;DHT22;156;48.738;9.228;2023-07-16T15:24:46;24.70;1.00
336;DHT22;156;48.738;9.228;2023-07-16T15:27:13;24.90;1.00
336;DHT22;156;48.738;9.228;2023-07-16T15:29:40;25.30;1.00
336;DHT22;156;48.738;9.228;2023-07-16T15:32:08;26.10;1.00
336;DHT22;156;48.738;9.228;2023-07-16T15:34:35;26.70;1.00
336;DHT22;156;48.738;9.228;2023-07-16T15:37:03;27.30;1.00
336;DHT22;156;48.738;9.228;2023-07-16T15:39:38;28.10;1.00
336;DHT22;156;48.738;9.228;2023-07-16T15:42:08;27.70;1.00
336;DHT22;156;48.738;9.228;2023-07-16T15:44:39;27.20;1.00
336;DHT22;156;48.738;9.228;2023-07-16T15:47:07;26.60;1.00
336;DHT22;156;48.738;9.228;2023-07-16T15:49:35;26.40;1.00
336;DHT22;156;48.738;9.228;2023-07-16T15:55:22;25.90;1.00
336;DHT22;156;48.738;9.228;2023-07-16T15:57:56;26.00;1.00
336;DHT22;156;48.738;9.228;2023-07-16T16:00:24;26.60;1.00
336;DHT22;156;48.738;9.228;2023-07-16T16:02:52;27.50;1.00
336;DHT22;156;48.738;9.228;2023-07-16T16:05:21;28.10;1.00
336;DHT22;156;48.738;9.228;2023-07-16T16:08:15;28.50;1.00
336;DHT22;156;48.738;9.228;2023-07-16T16:10:46;29.10;1.00
336;DHT22;156;48.738;9.228;2023-07-16T16:13:17;29.20;1.00
336;DHT22;156;48.738;9.228;2023-07-16T16:15:46;29.30;1.00
336;DHT22;156;48.738;9.228;2023-07-16T16:18:13;29.30;1.00
336;DHT22;156;48.738;9.228;2023-07-16T16:20:42;29.40;1.00
336;DHT22;156;48.738;9.228;2023-07-16T16:23:11;30.10;1.00
336;DHT22;156;48.738;9.228;2023-07-16T16:25:38;29.90;1.00
336;DHT22;156;48.738;9.228;2023-07-16T16:28:08;30.50;1.00
336;DHT22;156;48.738;9.228;2023-07-16T16:30:39;30.00;1.00
336;DHT22;156;48.738;9.228;2023-07-16T16:33:06;29.60;1.00
336;DHT22;156;48.738;9.228;2023-07-16T16:35:36;29.30;1.00
336;DHT22;156;48.738;9.228;2023-07-16T16:38:04;28.60;1.00
336;DHT22;156;48.738;9.228;2023-07-16T16:40:32;27.90;1.00
336;DHT22;156;48.738;9.228;2023-07-16T16:43:00;27.20;1.00
336;DHT22;156;48.738;9.228;2023-07-16T16:45:34;26.60;1.00
336;DHT22;156;48.738;9.228;2023-07-16T16:48:05;26.00;1.00
336;DHT22;156;48.738;9.228;2023-07-16T16:50:34;25.70;1.00
336;DHT22;156;48.738;9.228;2023-07-16T16:53:03;25.60;1.00
336;DHT22;156;48.738;9.228;2023-07-16T16:55:30;25.70;1.00
336;DHT22;156;48.738;9.228;2023-07-16T16:57:59;25.70;1.00
336;DHT22;156;48.738;9.228;2023-07-16T17:00:27;25.40;1.00
336;DHT22;156;48.738;9.228;2023-07-16T17:02:57;25.10;1.00